createdAt,value
2023-03-27T00:01:18.361Z,1.15
2023-03-27T00:03:49.775Z,0.88
2023-03-27T00:06:18.390Z,0.90
2023-03-27T00:08:47.015Z,1.00
2023-03-27T00:11:14.646Z,1.02
2023-03-27T00:13:48.885Z,1.02
2023-03-27T00:16:23.074Z,1.00
2023-03-27T00:18:49.892Z,0.90
2023-03-27T00:21:16.567Z,1.20
2023-03-27T00:23:43.307Z,0.90
2023-03-27T00:26:12.018Z,1.08
2023-03-27T00:28:39.310Z,1.00
2023-03-27T00:31:10.887Z,1.00
2023-03-27T00:33:37.844Z,0.75
2023-03-27T00:36:04.880Z,1.00
2023-03-27T00:38:32.301Z,0.80
2023-03-27T00:40:59.936Z,1.00
2023-03-27T00:43:28.563Z,1.08
2023-03-27T00:46:01.762Z,1.00
2023-03-27T00:48:31.333Z,0.93
2023-03-27T00:50:58.652Z,0.90
2023-03-27T00:53:26.960Z,0.90
2023-03-27T00:55:55.699Z,0.90
2023-03-27T00:58:32.200Z,0.93
2023-03-27T01:00:59.355Z,0.90
2023-03-27T01:03:30.621Z,0.90
2023-03-27T01:06:00.603Z,0.85
2023-03-27T01:08:33.121Z,0.90
2023-03-27T01:11:39.448Z,0.95
2023-03-27T01:14:11.325Z,0.90
2023-03-27T01:16:40.973Z,0.80
2023-03-27T01:19:35.384Z,0.90
2023-03-27T01:22:27.061Z,0.90
2023-03-27T01:25:21.640Z,1.00
2023-03-27T01:28:05.516Z,0.90
2023-03-27T01:30:39.427Z,0.80
2023-03-27T01:33:33.293Z,0.90
2023-03-27T01:36:31.468Z,0.75
2023-03-27T01:39:07.415Z,0.80
2023-03-27T01:41:49.705Z,0.70
2023-03-27T01:44:51.688Z,0.90
2023-03-27T01:47:40.167Z,0.80
2023-03-27T01:50:16.132Z,0.75
2023-03-27T01:52:49.609Z,0.80
2023-03-27T01:55:19.308Z,0.88
2023-03-27T01:58:05.119Z,0.77
2023-03-27T02:00:52.124Z,0.90
2023-03-27T02:03:34.929Z,0.80
2023-03-27T02:06:09.392Z,0.90
2023-03-27T02:08:45.070Z,0.90
2023-03-27T02:11:15.823Z,0.90
2023-03-27T02:13:50.631Z,0.80
2023-03-27T02:16:21.517Z,0.80
2023-03-27T02:18:56.776Z,0.90
2023-03-27T02:21:23.938Z,1.00
2023-03-27T02:23:51.310Z,0.90
2023-03-27T02:26:18.163Z,0.90
2023-03-27T02:28:54.101Z,0.90
2023-03-27T02:31:32.660Z,0.80
2023-03-27T02:34:11.988Z,1.00
2023-03-27T02:37:16.251Z,0.77
2023-03-27T02:40:31.112Z,1.00
2023-03-27T02:43:23.513Z,1.00
2023-03-27T02:45:56.942Z,0.95
2023-03-27T02:48:34.292Z,0.90
2023-03-27T02:51:12.462Z,1.00
2023-03-27T02:53:42.990Z,0.93
2023-03-27T02:56:10.925Z,1.27
2023-03-27T02:58:52.405Z,1.10
2023-03-27T03:01:32.564Z,1.10
2023-03-27T03:04:25.910Z,1.10
2023-03-27T03:09:40.455Z,0.90
2023-03-27T03:12:08.698Z,0.95
2023-03-27T03:14:44.273Z,0.80
2023-03-27T03:17:12.100Z,0.70
2023-03-27T03:19:38.961Z,0.80
2023-03-27T03:22:06.039Z,0.80
2023-03-27T03:24:35.644Z,0.57
2023-03-27T03:27:04.066Z,0.60
2023-03-27T03:29:35.538Z,0.70
2023-03-27T03:32:28.339Z,0.80
2023-03-27T03:34:57.082Z,0.68
2023-03-27T03:37:28.732Z,0.70
2023-03-27T03:39:57.345Z,0.60
2023-03-27T03:42:24.564Z,0.60
2023-03-27T03:44:54.138Z,0.60
2023-03-27T03:47:22.382Z,0.60
2023-03-27T03:49:49.837Z,0.68
2023-03-27T03:52:16.772Z,0.50
2023-03-27T03:54:44.962Z,0.60
2023-03-27T03:57:13.335Z,0.60
2023-03-27T03:59:40.513Z,0.52
2023-03-27T04:02:30.369Z,0.60
2023-03-27T04:05:08.643Z,0.60
2023-03-27T04:07:40.124Z,0.60
2023-03-27T04:10:38.588Z,0.60
2023-03-27T04:13:10.791Z,0.50
2023-03-27T04:15:46.970Z,0.60
2023-03-27T04:18:33.168Z,0.60
2023-03-27T04:21:04.310Z,0.90
2023-03-27T04:23:31.429Z,0.73
2023-03-27T04:26:00.481Z,0.70
2023-03-27T04:28:37.342Z,0.60
2023-03-27T04:31:23.977Z,0.60
2023-03-27T04:36:54.279Z,0.60
2023-03-27T04:39:24.894Z,0.85
2023-03-27T04:41:53.843Z,0.68
2023-03-27T04:44:21.342Z,0.60
2023-03-27T04:46:51.771Z,0.80
2023-03-27T04:49:19.215Z,0.77
2023-03-27T04:51:59.143Z,0.70
2023-03-27T04:54:31.784Z,0.82
2023-03-27T04:57:02.061Z,0.90
2023-03-27T04:59:32.038Z,0.80
2023-03-27T05:05:10.206Z,0.88
2023-03-27T05:07:37.712Z,0.90
2023-03-27T05:10:06.757Z,1.10
2023-03-27T05:12:34.255Z,0.90
2023-03-27T05:15:06.232Z,0.85
2023-03-27T05:17:44.330Z,1.30
2023-03-27T05:20:19.215Z,1.10
2023-03-27T05:22:46.746Z,1.05
2023-03-27T05:25:33.046Z,1.13
2023-03-27T05:28:02.979Z,1.10
2023-03-27T05:30:31.994Z,1.10
2023-03-27T05:33:14.168Z,1.20
2023-03-27T05:35:46.773Z,1.23
2023-03-27T05:38:14.301Z,1.10
2023-03-27T05:41:00.644Z,1.20
2023-03-27T05:43:29.087Z,1.27
2023-03-27T05:45:56.017Z,1.20
2023-03-27T05:48:22.958Z,1.02
2023-03-27T05:50:49.619Z,1.17
2023-03-27T05:53:28.001Z,1.00
2023-03-27T05:56:17.648Z,1.00
2023-03-27T05:59:04.906Z,1.15
2023-03-27T06:01:36.071Z,1.10
2023-03-27T06:04:04.433Z,1.27
2023-03-27T06:06:52.311Z,1.10
2023-03-27T06:09:19.989Z,1.00
2023-03-27T06:12:06.639Z,1.20
2023-03-27T06:14:38.018Z,1.70
2023-03-27T06:17:28.469Z,1.50
2023-03-27T06:20:00.728Z,1.50
2023-03-27T06:22:31.885Z,2.00
2023-03-27T06:25:02.258Z,1.88
2023-03-27T06:27:28.947Z,1.70
2023-03-27T06:29:55.858Z,1.48
2023-03-27T06:32:22.862Z,1.58
2023-03-27T06:34:51.622Z,1.63
2023-03-27T06:37:48.855Z,1.80
2023-03-27T06:40:24.310Z,1.60
2023-03-27T06:42:55.916Z,1.65
2023-03-27T06:45:52.086Z,1.63
2023-03-27T06:48:22.113Z,1.73
2023-03-27T06:50:53.482Z,2.03
2023-03-27T06:53:27.243Z,1.80
2023-03-27T06:55:55.410Z,1.70
2023-03-27T06:58:23.742Z,1.90
2023-03-27T07:00:51.333Z,1.70
2023-03-27T07:03:19.911Z,1.75
2023-03-27T07:06:16.456Z,1.60
2023-03-27T07:08:50.271Z,1.50
2023-03-27T07:11:18.436Z,1.70
2023-03-27T07:13:57.704Z,1.73
2023-03-27T07:16:30.151Z,1.75
2023-03-27T07:18:59.444Z,1.63
2023-03-27T07:21:28.529Z,1.90
2023-03-27T07:23:58.658Z,1.63
2023-03-27T07:26:33.522Z,1.90
2023-03-27T07:29:03.166Z,1.80
2023-03-27T07:31:51.045Z,1.63
2023-03-27T07:34:18.223Z,1.55
2023-03-27T07:37:08.500Z,2.03
2023-03-27T07:39:38.379Z,1.67
2023-03-27T07:42:05.167Z,1.80
2023-03-27T07:44:50.899Z,1.80
2023-03-27T07:47:18.156Z,1.75
2023-03-27T07:49:46.012Z,1.90
2023-03-27T07:52:16.524Z,1.80
2023-03-27T07:55:04.361Z,1.70
2023-03-27T08:00:17.562Z,1.77
2023-03-27T08:02:52.216Z,1.65
2023-03-27T08:05:19.584Z,1.80
2023-03-27T08:07:56.022Z,1.55
2023-03-27T08:10:47.369Z,1.50
2023-03-27T08:13:16.863Z,1.70
2023-03-27T08:15:43.567Z,1.33
2023-03-27T08:18:20.987Z,1.63
2023-03-27T08:20:48.517Z,1.60
2023-03-27T08:23:15.361Z,1.50
2023-03-27T08:26:18.202Z,1.50
2023-03-27T08:28:57.038Z,1.40
2023-03-27T08:31:30.647Z,1.60
2023-03-27T08:34:03.470Z,1.30
2023-03-27T08:36:40.363Z,1.70
2023-03-27T08:39:08.156Z,1.55
2023-03-27T08:41:57.209Z,1.48
2023-03-27T08:44:31.292Z,1.40
2023-03-27T08:47:05.015Z,1.35
2023-03-27T08:49:42.373Z,1.30
2023-03-27T08:52:27.957Z,1.27
2023-03-27T08:55:26.104Z,1.42
2023-03-27T08:58:21.023Z,1.58
2023-03-27T09:01:21.385Z,1.35
2023-03-27T09:03:48.235Z,1.30
2023-03-27T09:06:18.551Z,1.40
2023-03-27T09:09:03.346Z,1.40
2023-03-27T09:11:52.169Z,1.35
2023-03-27T09:14:36.505Z,1.40
2023-03-27T09:17:28.439Z,1.30
2023-03-27T09:20:18.000Z,1.30
2023-03-27T09:23:22.165Z,1.40
2023-03-27T09:26:19.519Z,1.50
2023-03-27T09:29:21.221Z,1.40
2023-03-27T09:31:56.374Z,1.40
2023-03-27T09:34:33.415Z,1.20
2023-03-27T09:37:00.917Z,1.13
2023-03-27T09:39:32.786Z,0.70
2023-03-27T09:42:30.964Z,0.80
2023-03-27T09:45:00.936Z,0.60
2023-03-27T09:47:58.728Z,0.40
2023-03-27T09:50:41.570Z,0.55
2023-03-27T09:53:19.349Z,0.40
2023-03-27T09:56:02.464Z,0.63
2023-03-27T09:58:44.159Z,0.40
2023-03-27T10:01:27.974Z,0.47
2023-03-27T10:04:00.526Z,0.50
2023-03-27T10:07:00.050Z,0.50
2023-03-27T10:10:24.996Z,0.50
2023-03-27T10:13:21.758Z,0.45
2023-03-27T10:15:58.622Z,0.40
2023-03-27T10:18:33.151Z,0.40
2023-03-27T10:21:11.854Z,0.57
2023-03-27T10:23:43.006Z,0.47
2023-03-27T10:26:21.837Z,0.40
2023-03-27T10:28:51.708Z,0.30
2023-03-27T10:31:40.160Z,0.40
2023-03-27T10:34:33.996Z,0.50
2023-03-27T10:37:28.631Z,0.30
2023-03-27T10:40:17.227Z,0.40
2023-03-27T10:42:44.662Z,0.50
2023-03-27T10:45:20.630Z,0.60
2023-03-27T10:47:53.976Z,0.63
2023-03-27T10:50:38.420Z,0.50
2023-03-27T10:53:24.876Z,0.40
2023-03-27T10:56:38.069Z,0.70
2023-03-27T10:59:11.444Z,0.60
2023-03-27T11:01:45.945Z,0.60
2023-03-27T11:04:32.046Z,0.60
2023-03-27T11:07:04.301Z,0.63
2023-03-27T11:09:36.510Z,0.70
2023-03-27T11:12:16.789Z,0.70
2023-03-27T11:15:01.416Z,0.75
2023-03-27T11:17:54.785Z,0.70
2023-03-27T11:20:59.770Z,0.70
2023-03-27T11:23:39.798Z,0.60
2023-03-27T11:26:35.536Z,0.82
2023-03-27T11:29:24.423Z,0.80
2023-03-27T11:31:57.304Z,0.80
2023-03-27T11:34:57.855Z,0.70
2023-03-27T11:37:47.275Z,0.80
2023-03-27T11:40:23.883Z,1.05
2023-03-27T11:42:57.737Z,0.90
2023-03-27T11:45:27.345Z,0.80
2023-03-27T11:48:26.366Z,0.90
2023-03-27T11:51:01.962Z,1.05
2023-03-27T11:54:06.058Z,0.90
2023-03-27T11:56:54.531Z,1.00
2023-03-27T12:00:08.180Z,1.10
2023-03-27T12:03:19.818Z,1.10
2023-03-27T12:05:55.344Z,1.10
2023-03-27T12:08:51.613Z,0.90
2023-03-27T12:11:20.540Z,1.00
2023-03-27T12:14:02.203Z,1.00
2023-03-27T12:16:44.348Z,0.90
2023-03-27T12:19:49.645Z,0.90
2023-03-27T12:22:42.260Z,0.90
2023-03-27T12:25:47.808Z,1.10
2023-03-27T12:29:23.745Z,0.90
2023-03-27T12:32:07.745Z,1.00
2023-03-27T12:34:40.577Z,1.00
2023-03-27T12:37:10.904Z,0.90
2023-03-27T12:39:48.277Z,1.10
2023-03-27T12:42:44.112Z,0.90
2023-03-27T12:45:18.316Z,1.00
2023-03-27T12:48:10.062Z,1.10
2023-03-27T12:50:55.148Z,1.00
2023-03-27T12:53:25.218Z,1.10
2023-03-27T12:56:16.476Z,1.13
2023-03-27T12:58:47.843Z,1.10
2023-03-27T13:01:49.108Z,1.27
2023-03-27T13:04:41.378Z,1.00
2023-03-27T13:07:32.896Z,1.10
2023-03-27T13:10:18.470Z,1.10
2023-03-27T13:13:20.473Z,1.38
2023-03-27T13:15:47.651Z,1.15
2023-03-27T13:18:56.991Z,1.20
2023-03-27T13:21:27.258Z,1.25
2023-03-27T13:24:16.080Z,1.10
2023-03-27T13:29:31.596Z,1.30
2023-03-27T13:32:32.158Z,1.25
2023-03-27T13:35:17.278Z,1.13
2023-03-27T13:38:02.591Z,0.90
2023-03-27T13:40:50.514Z,0.97
2023-03-27T13:43:30.914Z,1.00
2023-03-27T13:46:05.267Z,1.05
2023-03-27T13:48:50.625Z,0.75
2023-03-27T13:51:32.749Z,1.08
2023-03-27T13:54:23.215Z,1.17
2023-03-27T13:56:53.492Z,0.90
2023-03-27T14:00:08.467Z,0.80
2023-03-27T14:03:02.268Z,0.90
2023-03-27T14:05:59.847Z,0.80
2023-03-27T14:09:15.633Z,1.00
2023-03-27T14:12:02.870Z,0.80
2023-03-27T14:15:17.187Z,0.93
2023-03-27T14:18:15.429Z,1.20
2023-03-27T14:20:47.720Z,1.60
2023-03-27T14:23:23.399Z,1.55
2023-03-27T14:26:19.048Z,1.10
2023-03-27T14:28:49.259Z,1.40
2023-03-27T14:31:19.242Z,1.23
2023-03-27T14:34:14.738Z,1.10
2023-03-27T14:36:49.840Z,1.00
2023-03-27T14:39:26.920Z,1.10
2023-03-27T14:42:02.455Z,0.90
2023-03-27T14:44:32.921Z,1.10
2023-03-27T14:47:09.415Z,1.10
2023-03-27T14:49:49.281Z,1.00
2023-03-27T14:52:35.187Z,1.00
2023-03-27T14:55:15.544Z,0.93
2023-03-27T14:57:44.588Z,0.93
2023-03-27T15:00:22.124Z,1.10
2023-03-27T15:02:50.340Z,1.00
2023-03-27T15:05:19.197Z,1.17
2023-03-27T15:07:51.830Z,1.00
2023-03-27T15:10:41.396Z,0.85
2023-03-27T15:13:33.914Z,0.80
2023-03-27T15:16:01.073Z,1.05
2023-03-27T15:18:45.102Z,1.10
2023-03-27T15:21:20.026Z,1.15
2023-03-27T15:24:13.574Z,1.13
2023-03-27T15:26:40.918Z,1.20
2023-03-27T15:29:40.992Z,0.90
2023-03-27T15:32:12.269Z,1.05
2023-03-27T15:34:47.756Z,0.90
2023-03-27T15:37:19.979Z,1.00
2023-03-27T15:40:15.588Z,1.02
2023-03-27T15:42:53.701Z,1.10
2023-03-27T15:45:22.992Z,1.10
2023-03-27T15:48:05.638Z,1.15
2023-03-27T15:50:33.387Z,1.40
2023-03-27T15:53:01.617Z,1.30
2023-03-27T15:55:38.168Z,1.15
2023-03-27T15:58:28.465Z,1.13
2023-03-27T16:01:00.621Z,1.10
2023-03-27T16:03:31.194Z,1.27
2023-03-27T16:05:59.012Z,1.15
2023-03-27T16:08:35.114Z,0.90
2023-03-27T16:11:02.147Z,1.20
2023-03-27T16:13:33.920Z,1.10
2023-03-27T16:16:07.146Z,1.13
2023-03-27T16:18:35.718Z,1.02
2023-03-27T16:21:13.491Z,1.08
2023-03-27T16:23:40.868Z,0.95
2023-03-27T16:26:09.738Z,1.00
2023-03-27T16:28:36.519Z,1.13
2023-03-27T16:31:11.448Z,0.95
2023-03-27T16:33:38.375Z,1.13
2023-03-27T16:36:05.867Z,0.88
2023-03-27T16:38:35.424Z,0.88
2023-03-27T16:41:02.206Z,0.90
2023-03-27T16:43:28.874Z,0.93
2023-03-27T16:45:57.530Z,0.80
2023-03-27T16:48:24.380Z,0.88
2023-03-27T16:50:51.104Z,0.80
2023-03-27T16:53:17.776Z,0.90
2023-03-27T16:55:44.819Z,0.82
2023-03-27T16:58:11.579Z,1.00
2023-03-27T17:00:38.266Z,1.02
2023-03-27T17:03:05.296Z,0.88
2023-03-27T17:05:34.414Z,0.90
2023-03-27T17:08:01.795Z,0.80
2023-03-27T17:10:30.112Z,0.90
2023-03-27T17:12:56.962Z,0.80
2023-03-27T17:15:23.630Z,0.93
2023-03-27T17:17:50.578Z,0.90
2023-03-27T17:20:17.317Z,0.88
2023-03-27T17:22:45.520Z,0.90
2023-03-27T17:25:12.895Z,1.00
2023-03-27T17:27:39.540Z,0.90
2023-03-27T17:30:08.874Z,0.90
2023-03-27T17:32:35.568Z,1.00
2023-03-27T17:35:04.521Z,1.10
2023-03-27T17:37:31.399Z,0.75
2023-03-27T17:39:58.494Z,1.00
2023-03-27T17:42:25.184Z,0.75
2023-03-27T17:44:51.854Z,1.02
2023-03-27T17:47:18.574Z,1.02
2023-03-27T17:49:45.332Z,1.00
2023-03-27T17:52:13.428Z,1.00
2023-03-27T17:54:40.370Z,1.25
2023-03-27T17:57:07.357Z,1.00
2023-03-27T17:59:34.258Z,1.10
2023-03-27T18:02:01.206Z,1.10
2023-03-27T18:04:28.422Z,1.00
2023-03-27T18:06:55.212Z,1.00
2023-03-27T18:09:21.986Z,1.08
2023-03-27T18:11:48.652Z,1.10
2023-03-27T18:14:15.433Z,1.02
2023-03-27T18:16:42.262Z,1.00
2023-03-27T18:19:09.368Z,1.10
2023-03-27T18:21:36.239Z,1.17
2023-03-27T18:24:03.054Z,1.10
2023-03-27T18:26:29.716Z,1.20
2023-03-27T18:28:57.720Z,1.45
2023-03-27T18:31:25.358Z,1.17
2023-03-27T18:33:52.281Z,1.38
2023-03-27T18:36:19.002Z,1.35
2023-03-27T18:38:47.756Z,1.10
2023-03-27T18:41:16.569Z,1.23
2023-03-27T18:43:43.228Z,1.40
2023-03-27T18:46:14.033Z,0.98
2023-03-27T18:48:41.778Z,1.52
2023-03-27T18:51:08.605Z,1.33
2023-03-27T18:53:35.806Z,1.40
2023-03-27T18:56:02.782Z,1.30
2023-03-27T18:58:29.847Z,1.60
2023-03-27T19:00:56.981Z,1.48
2023-03-27T19:03:25.489Z,1.40
2023-03-27T19:05:52.744Z,1.40
2023-03-27T19:08:20.841Z,1.40
2023-03-27T19:10:47.761Z,1.23
2023-03-27T19:13:20.492Z,1.20
2023-03-27T19:16:14.950Z,1.50
2023-03-27T19:19:02.564Z,1.40
2023-03-27T19:21:58.672Z,1.30
2023-03-27T19:24:51.564Z,1.20
2023-03-27T19:27:23.920Z,1.50
2023-03-27T19:29:54.582Z,1.38
2023-03-27T19:32:21.560Z,1.25
2023-03-27T19:34:48.309Z,1.50
2023-03-27T19:37:15.069Z,1.60
2023-03-27T19:39:41.756Z,1.67
2023-03-27T19:42:08.477Z,1.20
2023-03-27T19:44:38.220Z,1.50
2023-03-27T19:47:05.608Z,1.50
2023-03-27T19:49:32.300Z,1.70
2023-03-27T19:52:20.252Z,1.50
2023-03-27T19:54:47.075Z,1.70
2023-03-27T19:57:14.204Z,1.80
2023-03-27T19:59:41.074Z,1.50
2023-03-27T20:02:07.886Z,1.45
2023-03-27T20:04:34.583Z,1.33
2023-03-27T20:07:02.250Z,1.75
2023-03-27T20:09:29.069Z,1.77
2023-03-27T20:11:56.933Z,1.52
2023-03-27T20:14:23.856Z,1.70
2023-03-27T20:16:53.917Z,1.52
2023-03-27T20:19:22.025Z,1.88
2023-03-27T20:21:49.207Z,1.67
2023-03-27T20:24:18.108Z,1.35
2023-03-27T20:26:52.536Z,1.50
2023-03-27T20:29:24.709Z,1.60
2023-03-27T20:31:51.627Z,1.40
2023-03-27T20:34:19.732Z,1.50
2023-03-27T20:36:47.295Z,1.40
2023-03-27T20:39:38.779Z,1.40
2023-03-27T20:42:07.733Z,1.42
2023-03-27T20:44:37.213Z,1.38
2023-03-27T20:47:12.149Z,1.30
2023-03-27T20:49:43.170Z,1.40
2023-03-27T20:52:12.325Z,1.40
2023-03-27T20:54:41.768Z,1.30
2023-03-27T20:57:10.507Z,1.60
2023-03-27T20:59:37.349Z,1.23
2023-03-27T21:02:04.194Z,1.50
2023-03-27T21:04:31.670Z,1.40
2023-03-27T21:06:58.787Z,1.17
2023-03-27T21:09:26.807Z,1.35
2023-03-27T21:11:55.398Z,1.13
2023-03-27T21:14:22.655Z,1.13
2023-03-27T21:16:49.611Z,1.35
2023-03-27T21:19:17.182Z,1.17
2023-03-27T21:21:44.645Z,1.33
2023-03-27T21:24:11.602Z,1.30
2023-03-27T21:26:38.300Z,1.10
2023-03-27T21:29:05.481Z,1.15
2023-03-27T21:31:32.202Z,1.20
2023-03-27T21:33:58.870Z,1.20
2023-03-27T21:36:28.781Z,0.98
2023-03-27T21:38:56.692Z,1.10
2023-03-27T21:41:23.699Z,1.20
2023-03-27T21:43:50.711Z,1.13
2023-03-27T21:46:17.592Z,1.33
2023-03-27T21:48:49.145Z,1.10
2023-03-27T21:51:15.882Z,1.13
2023-03-27T21:53:42.799Z,1.17
2023-03-27T21:56:09.679Z,1.30
2023-03-27T21:58:36.357Z,1.10
2023-03-27T22:01:03.659Z,0.98
2023-03-27T22:03:30.598Z,1.17
2023-03-27T22:06:11.845Z,0.90
2023-03-27T22:08:41.058Z,0.98
2023-03-27T22:11:07.885Z,1.10
2023-03-27T22:13:36.283Z,1.15
2023-03-27T22:16:13.685Z,1.10
2023-03-27T22:18:40.740Z,1.30
2023-03-27T22:21:25.611Z,1.10
2023-03-27T22:23:53.589Z,1.00
2023-03-27T22:26:21.999Z,1.10
2023-03-27T22:28:49.012Z,1.15
2023-03-27T22:31:15.948Z,1.00
2023-03-27T22:33:42.907Z,1.02
2023-03-27T22:36:11.199Z,1.10
2023-03-27T22:38:38.508Z,1.20
2023-03-27T22:41:06.658Z,1.20
2023-03-27T22:43:33.378Z,0.85
2023-03-27T22:46:08.160Z,1.00
2023-03-27T22:48:35.446Z,0.98
2023-03-27T22:51:02.166Z,1.20
2023-03-27T22:53:29.512Z,1.00
2023-03-27T22:55:57.361Z,1.20
2023-03-27T22:58:24.849Z,1.23
2023-03-27T23:00:53.196Z,1.00
2023-03-27T23:03:20.787Z,1.10
2023-03-27T23:05:49.156Z,1.10
2023-03-27T23:08:17.021Z,1.02
2023-03-27T23:10:44.101Z,0.98
2023-03-27T23:13:11.287Z,1.00
2023-03-27T23:15:38.182Z,0.90
2023-03-27T23:18:05.703Z,1.10
2023-03-27T23:20:32.434Z,1.20
2023-03-27T23:22:59.142Z,1.00
2023-03-27T23:25:25.939Z,0.90
2023-03-27T23:27:52.663Z,1.00
2023-03-27T23:30:19.473Z,1.00
2023-03-27T23:32:46.442Z,1.00
2023-03-27T23:35:13.147Z,0.88
2023-03-27T23:37:39.826Z,1.15
2023-03-27T23:40:07.274Z,1.35
2023-03-27T23:42:34.000Z,1.05
2023-03-27T23:45:01.038Z,0.80
2023-03-27T23:47:27.797Z,1.00
2023-03-27T23:49:54.502Z,0.93
2023-03-27T23:52:21.252Z,0.75
2023-03-27T23:54:47.912Z,0.90
2023-03-27T23:57:14.605Z,0.85
2023-03-27T23:59:41.517Z,0.80
